sensor_id;sensor_type;location;lat;lon;timestamp;pressure;altitude;pressure_sealevel;temperature;humidity
55466;BME280;41329;41.594;23.810;2023-02-19T00:02:21;95709.38;;;6.57;49.50
55466;BME280;41329;41.594;23.810;2023-02-19T00:04:47;95718.16;;;6.50;49.93
55466;BME280;41329;41.594;23.810;2023-02-19T00:07:12;95700.81;;;6.38;50.24
55466;BME280;41329;41.594;23.810;2023-02-19T00:09:38;95708.25;;;6.37;50.97
55466;BME280;41329;41.594;23.810;2023-02-19T00:12:03;95694.38;;;6.34;51.34
55466;BME280;41329;41.594;23.810;2023-02-19T00:14:29;95699.78;;;6.42;51.36
55466;BME280;41329;41.594;23.810;2023-02-19T00:16:54;95687.19;;;6.41;51.00
55466;BME280;41329;41.594;23.810;2023-02-19T00:19:20;95676.56;;;6.19;51.17
55466;BME280;41329;41.594;23.810;2023-02-19T00:21:46;95688.81;;;6.22;51.28
55466;BME280;41329;41.594;23.810;2023-02-19T00:24:13;95692.63;;;6.29;51.14
55466;BME280;41329;41.594;23.810;2023-02-19T00:26:40;95687.97;;;6.30;51.28
55466;BME280;41329;41.594;23.810;2023-02-19T00:29:06;95666.72;;;6.18;51.76
55466;BME280;41329;41.594;23.810;2023-02-19T00:31:33;95687.09;;;6.38;51.76
55466;BME280;41329;41.594;23.810;2023-02-19T00:34:01;95697.53;;;6.44;51.82
55466;BME280;41329;41.594;23.810;2023-02-19T00:36:28;95674.59;;;6.40;51.72
55466;BME280;41329;41.594;23.810;2023-02-19T00:38:55;95694.84;;;6.36;51.68
55466;BME280;41329;41.594;23.810;2023-02-19T00:41:21;95684.66;;;6.36;51.06
55466;BME280;41329;41.594;23.810;2023-02-19T00:43:53;95679.78;;;6.42;51.04
55466;BME280;41329;41.594;23.810;2023-02-19T00:46:23;95682.53;;;6.42;51.16
55466;BME280;41329;41.594;23.810;2023-02-19T00:48:50;95680.44;;;6.39;51.43
55466;BME280;41329;41.594;23.810;2023-02-19T00:51:17;95694.91;;;6.48;51.25
55466;BME280;41329;41.594;23.810;2023-02-19T00:53:43;95667.72;;;6.34;50.24
55466;BME280;41329;41.594;23.810;2023-02-19T00:56:09;95686.06;;;6.42;50.33
55466;BME280;41329;41.594;23.810;2023-02-19T00:58:35;95687.41;;;6.36;50.19
55466;BME280;41329;41.594;23.810;2023-02-19T01:01:01;95688.28;;;6.28;50.42
55466;BME280;41329;41.594;23.810;2023-02-19T01:03:27;95685.00;;;6.14;50.75
55466;BME280;41329;41.594;23.810;2023-02-19T01:05:52;95693.78;;;6.08;51.14
55466;BME280;41329;41.594;23.810;2023-02-19T01:08:19;95682.31;;;6.06;51.37
55466;BME280;41329;41.594;23.810;2023-02-19T01:10:45;95673.28;;;6.05;51.31
55466;BME280;41329;41.594;23.810;2023-02-19T01:13:10;95658.81;;;5.96;52.12
55466;BME280;41329;41.594;23.810;2023-02-19T01:15:36;95660.03;;;5.87;52.58
55466;BME280;41329;41.594;23.810;2023-02-19T01:18:02;95658.88;;;5.88;52.77
55466;BME280;41329;41.594;23.810;2023-02-19T01:20:27;95637.63;;;5.76;52.54
55466;BME280;41329;41.594;23.810;2023-02-19T01:22:53;95629.84;;;5.78;51.98
55466;BME280;41329;41.594;23.810;2023-02-19T01:25:18;95637.72;;;5.88;52.19
55466;BME280;41329;41.594;23.810;2023-02-19T01:27:44;95624.53;;;5.82;52.00
55466;BME280;41329;41.594;23.810;2023-02-19T01:30:10;95633.63;;;5.94;51.86
55466;BME280;41329;41.594;23.810;2023-02-19T01:32:35;95621.56;;;5.87;52.13
55466;BME280;41329;41.594;23.810;2023-02-19T01:35:00;95618.84;;;5.78;52.70
55466;BME280;41329;41.594;23.810;2023-02-19T01:37:26;95574.94;;;5.58;52.69
55466;BME280;41329;41.594;23.810;2023-02-19T01:39:51;95627.00;;;5.95;52.42
55466;BME280;41329;41.594;23.810;2023-02-19T01:42:17;95626.53;;;5.93;52.75
55466;BME280;41329;41.594;23.810;2023-02-19T01:47:11;95617.47;;;5.93;52.11
55466;BME280;41329;41.594;23.810;2023-02-19T01:49:42;95616.28;;;5.82;52.00
55466;BME280;41329;41.594;23.810;2023-02-19T01:52:31;95629.22;;;5.81;52.21
55466;BME280;41329;41.594;23.810;2023-02-19T01:55:01;95624.44;;;5.70;52.42
55466;BME280;41329;41.594;23.810;2023-02-19T01:57:32;95632.34;;;5.71;52.19
55466;BME280;41329;41.594;23.810;2023-02-19T02:00:07;95618.44;;;5.47;52.33
55466;BME280;41329;41.594;23.810;2023-02-19T02:02:33;95620.84;;;5.49;52.22
55466;BME280;41329;41.594;23.810;2023-02-19T02:05:00;95625.16;;;5.29;52.98
55466;BME280;41329;41.594;23.810;2023-02-19T02:07:27;95639.03;;;5.33;53.25
55466;BME280;41329;41.594;23.810;2023-02-19T02:10:11;95638.47;;;5.19;53.49
55466;BME280;41329;41.594;23.810;2023-02-19T02:12:49;95621.13;;;4.98;53.22
55466;BME280;41329;41.594;23.810;2023-02-19T02:15:15;95640.28;;;5.06;53.00
55466;BME280;41329;41.594;23.810;2023-02-19T02:25:29;95618.16;;;4.74;53.60
55466;BME280;41329;41.594;23.810;2023-02-19T02:30:45;95614.66;;;4.65;55.26
55466;BME280;41329;41.594;23.810;2023-02-19T02:33:19;95612.09;;;4.51;55.58
55466;BME280;41329;41.594;23.810;2023-02-19T02:35:52;95594.38;;;4.49;55.53
55466;BME280;41329;41.594;23.810;2023-02-19T02:38:20;95588.56;;;4.50;55.37
55466;BME280;41329;41.594;23.810;2023-02-19T02:40:48;95610.13;;;4.69;55.30
55466;BME280;41329;41.594;23.810;2023-02-19T02:43:14;95609.94;;;4.74;55.63
55466;BME280;41329;41.594;23.810;2023-02-19T02:45:40;95622.00;;;4.81;55.67
55466;BME280;41329;41.594;23.810;2023-02-19T02:51:01;95617.00;;;4.83;55.69
55466;BME280;41329;41.594;23.810;2023-02-19T02:53:37;95616.38;;;4.78;55.55
55466;BME280;41329;41.594;23.810;2023-02-19T02:56:24;95605.53;;;4.81;55.52
55466;BME280;41329;41.594;23.810;2023-02-19T02:58:51;95600.56;;;4.83;56.10
55466;BME280;41329;41.594;23.810;2023-02-19T03:01:24;95613.69;;;4.98;56.20
55466;BME280;41329;41.594;23.810;2023-02-19T03:04:22;95622.41;;;5.00;55.64
55466;BME280;41329;41.594;23.810;2023-02-19T03:06:49;95625.47;;;4.99;55.91
55466;BME280;41329;41.594;23.810;2023-02-19T03:09:19;95611.34;;;4.88;55.95
55466;BME280;41329;41.594;23.810;2023-02-19T03:11:48;95628.84;;;5.04;55.56
55466;BME280;41329;41.594;23.810;2023-02-19T03:14:42;95626.88;;;5.05;55.70
55466;BME280;41329;41.594;23.810;2023-02-19T03:17:41;95617.19;;;5.07;55.44
55466;BME280;41329;41.594;23.810;2023-02-19T03:20:28;95620.44;;;5.09;55.18
55466;BME280;41329;41.594;23.810;2023-02-19T03:22:55;95618.00;;;5.08;54.80
55466;BME280;41329;41.594;23.810;2023-02-19T03:25:27;95618.47;;;5.10;55.04
55466;BME280;41329;41.594;23.810;2023-02-19T03:28:14;95610.44;;;5.05;54.81
55466;BME280;41329;41.594;23.810;2023-02-19T03:30:46;95624.31;;;5.08;54.77
55466;BME280;41329;41.594;23.810;2023-02-19T03:33:17;95614.19;;;5.00;54.72
55466;BME280;41329;41.594;23.810;2023-02-19T03:35:54;95626.09;;;5.04;54.81
55466;BME280;41329;41.594;23.810;2023-02-19T03:40:57;95619.03;;;4.95;55.02
55466;BME280;41329;41.594;23.810;2023-02-19T03:46:06;95640.31;;;4.98;55.60
55466;BME280;41329;41.594;23.810;2023-02-19T03:48:40;95623.56;;;4.91;55.79
55466;BME280;41329;41.594;23.810;2023-02-19T03:54:12;95642.56;;;4.96;55.94
55466;BME280;41329;41.594;23.810;2023-02-19T03:57:06;95642.28;;;4.89;55.51
55466;BME280;41329;41.594;23.810;2023-02-19T03:59:42;95633.97;;;4.77;55.94
55466;BME280;41329;41.594;23.810;2023-02-19T04:05:15;95656.22;;;4.67;55.58
55466;BME280;41329;41.594;23.810;2023-02-19T04:07:49;95653.97;;;4.60;55.80
55466;BME280;41329;41.594;23.810;2023-02-19T04:10:17;95647.72;;;4.51;55.77
55466;BME280;41329;41.594;23.810;2023-02-19T04:12:57;95651.91;;;4.49;55.94
55466;BME280;41329;41.594;23.810;2023-02-19T04:15:27;95661.13;;;4.36;56.06
55466;BME280;41329;41.594;23.810;2023-02-19T04:17:57;95645.00;;;4.34;55.91
55466;BME280;41329;41.594;23.810;2023-02-19T04:20:26;95645.66;;;4.31;55.55
55466;BME280;41329;41.594;23.810;2023-02-19T04:22:54;95650.34;;;4.22;55.61
55466;BME280;41329;41.594;23.810;2023-02-19T04:25:21;95638.44;;;4.01;55.85
55466;BME280;41329;41.594;23.810;2023-02-19T04:27:48;95630.88;;;3.98;56.17
55466;BME280;41329;41.594;23.810;2023-02-19T04:30:13;95650.19;;;3.93;56.41
55466;BME280;41329;41.594;23.810;2023-02-19T04:32:39;95634.88;;;3.84;57.42
55466;BME280;41329;41.594;23.810;2023-02-19T04:35:04;95613.66;;;3.64;58.36
55466;BME280;41329;41.594;23.810;2023-02-19T04:37:30;95627.19;;;3.69;58.78
55466;BME280;41329;41.594;23.810;2023-02-19T04:39:55;95634.41;;;3.82;58.62
55466;BME280;41329;41.594;23.810;2023-02-19T04:42:21;95627.97;;;3.86;58.58
55466;BME280;41329;41.594;23.810;2023-02-19T04:44:47;95633.31;;;3.91;58.63
55466;BME280;41329;41.594;23.810;2023-02-19T04:47:12;95630.38;;;3.88;58.26
55466;BME280;41329;41.594;23.810;2023-02-19T04:49:37;95640.53;;;3.96;58.28
55466;BME280;41329;41.594;23.810;2023-02-19T04:52:03;95633.78;;;3.93;58.30
55466;BME280;41329;41.594;23.810;2023-02-19T04:54:28;95635.38;;;4.03;59.01
55466;BME280;41329;41.594;23.810;2023-02-19T04:56:54;95634.75;;;4.06;58.99
55466;BME280;41329;41.594;23.810;2023-02-19T04:59:19;95647.94;;;4.12;58.61
55466;BME280;41329;41.594;23.810;2023-02-19T05:01:44;95643.44;;;4.16;58.32
55466;BME280;41329;41.594;23.810;2023-02-19T05:04:10;95639.25;;;4.19;58.36
55466;BME280;41329;41.594;23.810;2023-02-19T05:06:36;95632.81;;;4.15;58.60
55466;BME280;41329;41.594;23.810;2023-02-19T05:09:02;95667.56;;;4.14;58.51
55466;BME280;41329;41.594;23.810;2023-02-19T05:11:27;95631.19;;;3.88;57.90
55466;BME280;41329;41.594;23.810;2023-02-19T05:13:54;95674.03;;;4.01;57.30
55466;BME280;41329;41.594;23.810;2023-02-19T05:16:19;95662.91;;;3.89;57.30
55466;BME280;41329;41.594;23.810;2023-02-19T05:18:45;95674.19;;;3.96;57.50
55466;BME280;41329;41.594;23.810;2023-02-19T05:21:12;95681.59;;;3.96;57.34
55466;BME280;41329;41.594;23.810;2023-02-19T05:23:38;95679.50;;;3.93;57.28
55466;BME280;41329;41.594;23.810;2023-02-19T05:26:15;95660.16;;;3.72;56.87
55466;BME280;41329;41.594;23.810;2023-02-19T05:28:45;95684.78;;;3.72;57.39
55466;BME280;41329;41.594;23.810;2023-02-19T05:31:11;95691.56;;;3.66;57.34
55466;BME280;41329;41.594;23.810;2023-02-19T05:33:37;95685.75;;;3.59;57.52
55466;BME280;41329;41.594;23.810;2023-02-19T05:36:08;95691.06;;;3.56;57.91
55466;BME280;41329;41.594;23.810;2023-02-19T05:38:35;95695.81;;;3.42;58.00
55466;BME280;41329;41.594;23.810;2023-02-19T05:41:12;95702.53;;;3.27;58.61
55466;BME280;41329;41.594;23.810;2023-02-19T05:43:39;95691.53;;;3.10;59.76
55466;BME280;41329;41.594;23.810;2023-02-19T05:46:05;95696.22;;;3.10;60.93
55466;BME280;41329;41.594;23.810;2023-02-19T05:48:32;95686.72;;;3.07;61.35
55466;BME280;41329;41.594;23.810;2023-02-19T05:51:09;95701.09;;;3.21;62.05
55466;BME280;41329;41.594;23.810;2023-02-19T05:53:36;95698.50;;;3.25;62.96
55466;BME280;41329;41.594;23.810;2023-02-19T05:56:02;95695.81;;;3.33;63.60
55466;BME280;41329;41.594;23.810;2023-02-19T05:58:27;95700.31;;;3.38;63.39
55466;BME280;41329;41.594;23.810;2023-02-19T06:00:54;95698.41;;;3.38;62.78
55466;BME280;41329;41.594;23.810;2023-02-19T06:03:19;95718.41;;;3.64;62.54
55466;BME280;41329;41.594;23.810;2023-02-19T06:05:45;95716.69;;;3.77;62.08
55466;BME280;41329;41.594;23.810;2023-02-19T06:08:14;95718.75;;;3.80;62.34
55466;BME280;41329;41.594;23.810;2023-02-19T06:10:40;95717.50;;;3.94;62.68
55466;BME280;41329;41.594;23.810;2023-02-19T06:13:07;95715.22;;;3.88;63.26
55466;BME280;41329;41.594;23.810;2023-02-19T06:15:32;95726.19;;;4.05;63.34
55466;BME280;41329;41.594;23.810;2023-02-19T06:17:58;95733.63;;;4.21;62.78
55466;BME280;41329;41.594;23.810;2023-02-19T06:20:23;95724.28;;;4.14;62.65
55466;BME280;41329;41.594;23.810;2023-02-19T06:22:49;95731.38;;;4.23;61.97
55466;BME280;41329;41.594;23.810;2023-02-19T06:25:15;95735.22;;;4.05;62.43
55466;BME280;41329;41.594;23.810;2023-02-19T06:27:40;95743.47;;;4.14;62.09
55466;BME280;41329;41.594;23.810;2023-02-19T06:30:06;95754.72;;;4.21;61.84
55466;BME280;41329;41.594;23.810;2023-02-19T06:32:32;95758.28;;;4.21;61.03
55466;BME280;41329;41.594;23.810;2023-02-19T06:34:57;95747.66;;;4.20;60.93
55466;BME280;41329;41.594;23.810;2023-02-19T06:37:22;95740.41;;;4.24;61.58
55466;BME280;41329;41.594;23.810;2023-02-19T06:39:48;95733.78;;;4.25;61.75
55466;BME280;41329;41.594;23.810;2023-02-19T06:42:13;95724.78;;;4.24;62.09
55466;BME280;41329;41.594;23.810;2023-02-19T06:44:39;95721.22;;;4.32;62.32
55466;BME280;41329;41.594;23.810;2023-02-19T06:47:04;95734.44;;;4.47;62.47
55466;BME280;41329;41.594;23.810;2023-02-19T06:49:30;95727.81;;;4.48;62.43
55466;BME280;41329;41.594;23.810;2023-02-19T06:51:55;95724.59;;;4.55;62.17
55466;BME280;41329;41.594;23.810;2023-02-19T06:54:20;95722.94;;;4.71;62.44
55466;BME280;41329;41.594;23.810;2023-02-19T06:56:46;95728.25;;;4.84;62.32
55466;BME280;41329;41.594;23.810;2023-02-19T06:59:14;95739.50;;;4.91;62.10
55466;BME280;41329;41.594;23.810;2023-02-19T07:01:43;95739.00;;;5.06;62.10
55466;BME280;41329;41.594;23.810;2023-02-19T07:04:10;95728.34;;;5.05;61.63
55466;BME280;41329;41.594;23.810;2023-02-19T07:06:37;95726.22;;;5.19;62.10
55466;BME280;41329;41.594;23.810;2023-02-19T07:09:04;95738.09;;;5.40;62.11
55466;BME280;41329;41.594;23.810;2023-02-19T07:11:31;95736.88;;;5.58;62.00
55466;BME280;41329;41.594;23.810;2023-02-19T07:13:59;95730.81;;;5.73;62.25
55466;BME280;41329;41.594;23.810;2023-02-19T07:16:25;95725.59;;;5.88;61.99
55466;BME280;41329;41.594;23.810;2023-02-19T07:18:51;95714.63;;;5.88;60.58
55466;BME280;41329;41.594;23.810;2023-02-19T07:21:17;95735.44;;;5.89;59.60
55466;BME280;41329;41.594;23.810;2023-02-19T07:23:43;95735.75;;;5.79;60.00
55466;BME280;41329;41.594;23.810;2023-02-19T07:26:11;95739.66;;;5.87;60.27
55466;BME280;41329;41.594;23.810;2023-02-19T07:28:38;95736.91;;;5.87;60.28
55466;BME280;41329;41.594;23.810;2023-02-19T07:31:04;95730.16;;;6.05;60.90
55466;BME280;41329;41.594;23.810;2023-02-19T07:33:29;95712.00;;;6.12;60.62
55466;BME280;41329;41.594;23.810;2023-02-19T07:35:55;95722.84;;;6.29;60.00
55466;BME280;41329;41.594;23.810;2023-02-19T07:38:22;95728.38;;;6.50;59.93
55466;BME280;41329;41.594;23.810;2023-02-19T07:40:58;95736.78;;;6.66;59.13
55466;BME280;41329;41.594;23.810;2023-02-19T07:43:24;95727.66;;;6.74;59.44
55466;BME280;41329;41.594;23.810;2023-02-19T07:45:50;95725.69;;;6.95;59.87
55466;BME280;41329;41.594;23.810;2023-02-19T07:48:17;95719.78;;;7.17;60.56
55466;BME280;41329;41.594;23.810;2023-02-19T07:50:50;95718.91;;;7.49;60.27
55466;BME280;41329;41.594;23.810;2023-02-19T07:53:16;95668.22;;;7.50;59.62
55466;BME280;41329;41.594;23.810;2023-02-19T07:55:41;95723.06;;;8.03;59.21
55466;BME280;41329;41.594;23.810;2023-02-19T07:58:08;95720.16;;;8.35;58.59
55466;BME280;41329;41.594;23.810;2023-02-19T08:00:33;95709.16;;;8.63;58.37
55466;BME280;41329;41.594;23.810;2023-02-19T08:02:59;95705.41;;;8.83;55.47
55466;BME280;41329;41.594;23.810;2023-02-19T08:05:25;95705.78;;;8.97;55.90
55466;BME280;41329;41.594;23.810;2023-02-19T08:07:51;95698.88;;;8.75;53.42
55466;BME280;41329;41.594;23.810;2023-02-19T08:10:16;95689.69;;;8.71;54.60
55466;BME280;41329;41.594;23.810;2023-02-19T08:13:01;95696.09;;;8.75;53.29
55466;BME280;41329;41.594;23.810;2023-02-19T08:16:08;95703.44;;;8.83;54.10
55466;BME280;41329;41.594;23.810;2023-02-19T08:18:33;95694.31;;;8.95;53.10
55466;BME280;41329;41.594;23.810;2023-02-19T08:20:59;95689.94;;;8.94;53.30
55466;BME280;41329;41.594;23.810;2023-02-19T08:23:25;95672.31;;;8.83;52.77
55466;BME280;41329;41.594;23.810;2023-02-19T08:25:52;95690.50;;;8.99;53.92
55466;BME280;41329;41.594;23.810;2023-02-19T08:28:18;95683.34;;;8.83;52.68
55466;BME280;41329;41.594;23.810;2023-02-19T08:30:45;95687.19;;;8.94;53.52
55466;BME280;41329;41.594;23.810;2023-02-19T08:33:16;95682.66;;;9.01;54.12
55466;BME280;41329;41.594;23.810;2023-02-19T08:35:42;95683.75;;;9.12;53.56
55466;BME280;41329;41.594;23.810;2023-02-19T08:38:09;95655.44;;;9.00;52.23
55466;BME280;41329;41.594;23.810;2023-02-19T08:40:36;95694.44;;;9.29;52.66
55466;BME280;41329;41.594;23.810;2023-02-19T08:43:04;95685.66;;;9.39;52.71
55466;BME280;41329;41.594;23.810;2023-02-19T08:45:30;95679.94;;;9.48;52.45
55466;BME280;41329;41.594;23.810;2023-02-19T08:47:57;95685.47;;;9.63;51.65
55466;BME280;41329;41.594;23.810;2023-02-19T08:50:22;95656.25;;;9.62;51.70
55466;BME280;41329;41.594;23.810;2023-02-19T08:52:48;95650.16;;;9.72;52.07
55466;BME280;41329;41.594;23.810;2023-02-19T08:55:13;95673.94;;;10.08;53.78
55466;BME280;41329;41.594;23.810;2023-02-19T08:57:39;95660.38;;;10.37;52.69
55466;BME280;41329;41.594;23.810;2023-02-19T09:00:05;95654.94;;;10.41;50.59
55466;BME280;41329;41.594;23.810;2023-02-19T09:02:31;95634.69;;;10.37;50.59
55466;BME280;41329;41.594;23.810;2023-02-19T09:04:57;95658.00;;;10.55;50.93
55466;BME280;41329;41.594;23.810;2023-02-19T09:07:22;95647.66;;;10.71;50.56
55466;BME280;41329;41.594;23.810;2023-02-19T09:09:48;95636.78;;;10.81;50.54
55466;BME280;41329;41.594;23.810;2023-02-19T09:12:13;95634.16;;;10.88;50.34
55466;BME280;41329;41.594;23.810;2023-02-19T09:14:39;95625.09;;;10.88;48.45
55466;BME280;41329;41.594;23.810;2023-02-19T09:17:06;95629.31;;;10.82;48.76
55466;BME280;41329;41.594;23.810;2023-02-19T09:19:32;95632.13;;;10.85;48.60
55466;BME280;41329;41.594;23.810;2023-02-19T09:21:58;95626.72;;;10.92;48.19
55466;BME280;41329;41.594;23.810;2023-02-19T09:24:23;95625.34;;;11.02;49.03
55466;BME280;41329;41.594;23.810;2023-02-19T09:26:50;95612.28;;;11.25;49.50
55466;BME280;41329;41.594;23.810;2023-02-19T09:29:17;95603.19;;;11.47;49.41
55466;BME280;41329;41.594;23.810;2023-02-19T09:31:43;95570.84;;;11.54;49.30
55466;BME280;41329;41.594;23.810;2023-02-19T09:34:09;95609.75;;;12.10;47.04
55466;BME280;41329;41.594;23.810;2023-02-19T09:36:37;95599.06;;;12.12;47.65
55466;BME280;41329;41.594;23.810;2023-02-19T09:39:03;95604.19;;;12.36;47.39
55466;BME280;41329;41.594;23.810;2023-02-19T09:41:50;95597.75;;;12.62;47.57
55466;BME280;41329;41.594;23.810;2023-02-19T09:44:24;95588.63;;;12.94;46.88
55466;BME280;41329;41.594;23.810;2023-02-19T09:46:51;95576.81;;;13.01;45.90
55466;BME280;41329;41.594;23.810;2023-02-19T09:49:25;95554.59;;;13.01;44.97
55466;BME280;41329;41.594;23.810;2023-02-19T09:52:12;95560.75;;;13.24;44.44
55466;BME280;41329;41.594;23.810;2023-02-19T09:54:40;95573.16;;;13.33;44.26
55466;BME280;41329;41.594;23.810;2023-02-19T09:57:13;95572.06;;;13.45;44.33
55466;BME280;41329;41.594;23.810;2023-02-19T09:59:42;95553.88;;;13.54;43.65
55466;BME280;41329;41.594;23.810;2023-02-19T10:02:13;95562.72;;;13.67;44.52
55466;BME280;41329;41.594;23.810;2023-02-19T10:04:42;95540.22;;;13.86;45.02
55466;BME280;41329;41.594;23.810;2023-02-19T10:07:12;95562.75;;;14.24;43.63
55466;BME280;41329;41.594;23.810;2023-02-19T10:09:38;95552.94;;;14.55;43.60
55466;BME280;41329;41.594;23.810;2023-02-19T10:12:13;95529.56;;;14.77;44.18
55466;BME280;41329;41.594;23.810;2023-02-19T10:14:44;95539.97;;;15.08;42.58
55466;BME280;41329;41.594;23.810;2023-02-19T10:17:22;95540.00;;;15.32;41.62
55466;BME280;41329;41.594;23.810;2023-02-19T10:19:49;95519.34;;;15.47;40.77
55466;BME280;41329;41.594;23.810;2023-02-19T10:22:15;95527.69;;;15.82;40.86
55466;BME280;41329;41.594;23.810;2023-02-19T10:24:42;95512.13;;;15.99;40.43
55466;BME280;41329;41.594;23.810;2023-02-19T10:27:12;95504.06;;;16.22;38.29
55466;BME280;41329;41.594;23.810;2023-02-19T10:29:38;95504.88;;;16.22;37.07
55466;BME280;41329;41.594;23.810;2023-02-19T10:32:12;95504.03;;;16.39;39.11
55466;BME280;41329;41.594;23.810;2023-02-19T10:34:38;95492.38;;;16.65;38.98
55466;BME280;41329;41.594;23.810;2023-02-19T10:37:03;95493.47;;;16.82;35.84
55466;BME280;41329;41.594;23.810;2023-02-19T10:39:40;95491.94;;;16.74;35.27
55466;BME280;41329;41.594;23.810;2023-02-19T10:42:14;95489.13;;;16.77;34.56
55466;BME280;41329;41.594;23.810;2023-02-19T10:44:45;95489.50;;;16.79;35.37
55466;BME280;41329;41.594;23.810;2023-02-19T10:47:17;95475.84;;;16.92;35.36
55466;BME280;41329;41.594;23.810;2023-02-19T10:49:44;95471.03;;;16.92;34.94
55466;BME280;41329;41.594;23.810;2023-02-19T10:52:19;95476.16;;;17.04;34.36
55466;BME280;41329;41.594;23.810;2023-02-19T10:55:24;95462.09;;;17.18;35.85
55466;BME280;41329;41.594;23.810;2023-02-19T10:57:50;95457.16;;;17.36;35.49
55466;BME280;41329;41.594;23.810;2023-02-19T11:02:44;95445.91;;;17.47;35.03
55466;BME280;41329;41.594;23.810;2023-02-19T11:10:22;95408.06;;;17.76;34.34
55466;BME280;41329;41.594;23.810;2023-02-19T11:12:49;95423.41;;;17.98;34.33
55466;BME280;41329;41.594;23.810;2023-02-19T11:15:21;95405.78;;;17.98;34.73
55466;BME280;41329;41.594;23.810;2023-02-19T11:20:23;95397.91;;;18.23;32.53
55466;BME280;41329;41.594;23.810;2023-02-19T11:22:49;95400.28;;;18.24;33.33
55466;BME280;41329;41.594;23.810;2023-02-19T11:28:21;95403.91;;;18.55;32.90
55466;BME280;41329;41.594;23.810;2023-02-19T11:30:48;95397.34;;;18.68;33.05
55466;BME280;41329;41.594;23.810;2023-02-19T11:35:44;95389.69;;;18.99;32.10
55466;BME280;41329;41.594;23.810;2023-02-19T11:38:12;95379.06;;;19.10;32.54
55466;BME280;41329;41.594;23.810;2023-02-19T11:43:17;95380.91;;;19.20;30.56
55466;BME280;41329;41.594;23.810;2023-02-19T11:46:20;95367.25;;;19.22;31.14
55466;BME280;41329;41.594;23.810;2023-02-19T11:49:13;95356.22;;;19.34;31.24
55466;BME280;41329;41.594;23.810;2023-02-19T11:52:01;95342.53;;;19.59;31.03
55466;BME280;41329;41.594;23.810;2023-02-19T11:54:43;95343.13;;;19.93;31.49
55466;BME280;41329;41.594;23.810;2023-02-19T12:05:16;95332.47;;;20.24;29.69
55466;BME280;41329;41.594;23.810;2023-02-19T12:11:04;95308.66;;;20.48;30.84
55466;BME280;41329;41.594;23.810;2023-02-19T12:16:42;95304.78;;;21.09;29.06
55466;BME280;41329;41.594;23.810;2023-02-19T12:21:46;95298.72;;;21.27;27.31
55466;BME280;41329;41.594;23.810;2023-02-19T12:24:47;95305.66;;;21.22;27.13
55466;BME280;41329;41.594;23.810;2023-02-19T12:30:42;95294.22;;;21.45;28.15
55466;BME280;41329;41.594;23.810;2023-02-19T12:38:44;95282.81;;;21.81;25.60
55466;BME280;41329;41.594;23.810;2023-02-19T12:41:33;95264.41;;;21.76;27.16
55466;BME280;41329;41.594;23.810;2023-02-19T12:44:12;95267.66;;;22.03;25.81
55466;BME280;41329;41.594;23.810;2023-02-19T12:46:45;95263.84;;;22.10;26.60
55466;BME280;41329;41.594;23.810;2023-02-19T12:49:21;95252.78;;;22.15;25.66
55466;BME280;41329;41.594;23.810;2023-02-19T12:52:00;95250.09;;;22.12;26.01
55466;BME280;41329;41.594;23.810;2023-02-19T12:54:37;95250.69;;;22.32;25.50
55466;BME280;41329;41.594;23.810;2023-02-19T12:57:15;95260.66;;;22.49;25.51
55466;BME280;41329;41.594;23.810;2023-02-19T13:02:29;95243.47;;;22.43;25.78
55466;BME280;41329;41.594;23.810;2023-02-19T13:05:03;95236.50;;;22.60;25.14
55466;BME280;41329;41.594;23.810;2023-02-19T13:07:45;95218.69;;;22.76;25.66
55466;BME280;41329;41.594;23.810;2023-02-19T13:10:35;95235.22;;;23.12;25.36
55466;BME280;41329;41.594;23.810;2023-02-19T13:13:11;95237.00;;;23.31;24.65
55466;BME280;41329;41.594;23.810;2023-02-19T13:15:46;95222.91;;;23.31;23.58
55466;BME280;41329;41.594;23.810;2023-02-19T13:18:19;95220.19;;;23.15;23.01
55466;BME280;41329;41.594;23.810;2023-02-19T13:20:47;95202.81;;;23.16;24.13
55466;BME280;41329;41.594;23.810;2023-02-19T13:34:04;95175.50;;;23.13;23.25
55466;BME280;41329;41.594;23.810;2023-02-19T13:36:34;95190.59;;;23.32;23.72
55466;BME280;41329;41.594;23.810;2023-02-19T13:39:04;95183.66;;;23.45;23.94
55466;BME280;41329;41.594;23.810;2023-02-19T13:41:39;95182.75;;;23.48;22.83
55466;BME280;41329;41.594;23.810;2023-02-19T13:44:12;95168.03;;;23.53;22.49
55466;BME280;41329;41.594;23.810;2023-02-19T13:46:42;95145.47;;;23.41;24.15
55466;BME280;41329;41.594;23.810;2023-02-19T13:52:47;95177.94;;;23.79;23.69
55466;BME280;41329;41.594;23.810;2023-02-19T13:54:48;95164.56;;;23.92;23.34
55466;BME280;41329;41.594;23.810;2023-02-19T13:59:52;95161.22;;;24.15;22.61
55466;BME280;41329;41.594;23.810;2023-02-19T14:04:56;95159.47;;;24.39;23.35
55466;BME280;41329;41.594;23.810;2023-02-19T14:09:52;95151.56;;;24.65;21.57
55466;BME280;41329;41.594;23.810;2023-02-19T14:12:19;95140.84;;;24.60;21.75
55466;BME280;41329;41.594;23.810;2023-02-19T14:28:17;95148.19;;;24.97;21.02
55466;BME280;41329;41.594;23.810;2023-02-19T14:33:14;95142.22;;;24.95;20.32
55466;BME280;41329;41.594;23.810;2023-02-19T14:35:43;95122.53;;;24.82;20.70
55466;BME280;41329;41.594;23.810;2023-02-19T14:38:18;95131.34;;;24.84;20.77
55466;BME280;41329;41.594;23.810;2023-02-19T14:40:45;95130.69;;;24.71;20.62
55466;BME280;41329;41.594;23.810;2023-02-19T14:43:16;95136.72;;;24.12;20.84
55466;BME280;41329;41.594;23.810;2023-02-19T14:45:47;95135.91;;;23.38;21.43
55466;BME280;41329;41.594;23.810;2023-02-19T14:48:21;95138.00;;;23.25;21.94
55466;BME280;41329;41.594;23.810;2023-02-19T14:50:50;95130.75;;;22.90;22.31
55466;BME280;41329;41.594;23.810;2023-02-19T14:53:18;95132.19;;;22.94;22.49
55466;BME280;41329;41.594;23.810;2023-02-19T14:55:45;95128.50;;;22.85;23.11
55466;BME280;41329;41.594;23.810;2023-02-19T14:58:15;95142.13;;;23.33;23.77
55466;BME280;41329;41.594;23.810;2023-02-19T15:00:43;95115.84;;;24.10;22.78
55466;BME280;41329;41.594;23.810;2023-02-19T15:03:32;95124.13;;;25.01;22.09